Time;durP1;ratioP1;P1;durP2;ratioP2;P2;SDS_P1;SDS_P2;PMS_P1;PMS_P2;Temp;Humidity;BMP_temperature;BMP_pressure;BME280_temperature;BME280_humidity;BME280_pressure;Samples;Min_cycle;Max_cycle;Signal;HPM_P1;HPM_P2
2021/01/19 00:00:01;;;;;;;2.47;2.00;;;10.50;98.20;;;;;;5075796;28;20043;-88
2021/01/19 00:02:27;;;;;;;2.53;1.95;;;10.50;98.30;;;;;;5051619;28;20085;-88
2021/01/19 00:04:53;;;;;;;3.58;2.53;;;10.50;98.20;;;;;;5070467;28;20736;-89
2021/01/19 00:07:18;;;;;;;2.15;1.48;;;10.50;98.20;;;;;;5055137;28;20482;-89
2021/01/19 00:09:44;;;;;;;2.13;1.65;;;10.50;98.20;;;;;;5067898;28;20017;-88
2021/01/19 00:12:09;;;;;;;1.75;1.50;;;10.50;98.20;;;;;;5036598;28;20032;-88
2021/01/19 00:14:35;;;;;;;2.55;1.42;;;10.50;98.20;;;;;;5056335;28;20096;-87
2021/01/19 00:17:01;;;;;;;2.08;1.48;;;10.60;98.20;;;;;;5065264;28;20087;-87
2021/01/19 00:19:27;;;;;;;3.78;2.55;;;10.60;98.40;;;;;;5064653;28;20067;-87
2021/01/19 00:21:52;;;;;;;1.58;1.48;;;10.50;98.50;;;;;;5037287;28;20024;-88
2021/01/19 00:24:18;;;;;;;6.20;3.70;;;10.50;98.70;;;;;;5064277;28;20037;-89
2021/01/19 00:26:44;;;;;;;1.88;1.40;;;10.60;99.00;;;;;;5073235;28;20477;-87
2021/01/19 00:29:09;;;;;;;1.52;1.15;;;10.60;99.10;;;;;;5039658;28;20043;-88
2021/01/19 00:31:35;;;;;;;4.50;1.55;;;10.50;99.30;;;;;;5052996;28;20033;-87
2021/01/19 00:34:00;;;;;;;1.40;1.10;;;10.40;99.60;;;;;;5040074;28;20024;-87
2021/01/19 00:36:26;;;;;;;3.42;1.50;;;10.40;99.60;;;;;;5055559;28;20028;-87
2021/01/19 00:38:52;;;;;;;3.72;1.10;;;10.40;99.70;;;;;;5052629;28;20036;-86
2021/01/19 00:41:17;;;;;;;1.63;0.90;;;10.40;99.90;;;;;;5061515;28;20042;-88
2021/01/19 00:43:43;;;;;;;2.33;1.10;;;10.40;99.60;;;;;;5074932;28;20029;-86
2021/01/19 00:46:09;;;;;;;1.77;1.00;;;10.50;99.60;;;;;;5066524;28;20035;-87
2021/01/19 00:48:35;;;;;;;1.20;0.90;;;10.50;99.50;;;;;;5053341;28;20082;-88
2021/01/19 00:51:00;;;;;;;3.35;1.08;;;10.60;99.30;;;;;;5053922;28;20473;-86
2021/01/19 00:53:26;;;;;;;1.30;0.80;;;10.60;99.00;;;;;;5055400;28;20020;-88
2021/01/19 00:55:52;;;;;;;2.67;1.05;;;10.60;98.90;;;;;;5056677;28;20033;-87
2021/01/19 00:58:17;;;;;;;2.45;1.15;;;10.60;99.10;;;;;;5048540;28;20443;-88
2021/01/19 01:00:43;;;;;;;1.00;0.80;;;10.60;99.10;;;;;;5048985;28;20032;-87
2021/01/19 01:03:10;;;;;;;2.60;0.90;;;10.60;99.00;;;;;;5051603;28;20051;-88
2021/01/19 01:05:36;;;;;;;1.20;0.80;;;10.60;99.10;;;;;;5036174;28;20036;-89
2021/01/19 01:08:02;;;;;;;0.70;0.70;;;10.70;99.10;;;;;;5069826;28;20016;-89
2021/01/19 01:10:28;;;;;;;;;;;10.60;99.00;;;;;;5037076;28;20394;-87
2021/01/19 01:12:54;;;;;;;0.70;0.70;;;10.70;98.90;;;;;;5074226;28;19904;-87
2021/01/19 01:15:34;;;;;;;2.20;0.77;;;10.70;99.00;;;;;;5053422;28;20075;-87
2021/01/19 01:18:00;;;;;;;0.63;0.60;;;10.70;98.90;;;;;;5053519;28;20029;-87
2021/01/19 01:20:26;;;;;;;0.60;0.60;;;10.70;98.90;;;;;;5072937;28;20020;-88
2021/01/19 01:22:52;;;;;;;0.60;0.60;;;10.70;99.10;;;;;;5055507;28;20417;-88
2021/01/19 01:25:17;;;;;;;;;;;10.80;98.70;;;;;;5037212;28;20056;-89
2021/01/19 01:27:45;;;;;;;0.50;0.50;;;10.80;98.50;;;;;;5035162;28;19943;-89
2021/01/19 01:30:13;;;;;;;0.70;0.70;;;10.80;98.70;;;;;;5068040;28;20048;-89
2021/01/19 01:32:41;;;;;;;0.70;0.70;;;10.80;98.80;;;;;;5055586;28;20040;-89
2021/01/19 01:35:08;;;;;;;0.80;0.60;;;10.80;98.90;;;;;;5055300;28;20016;-88
2021/01/19 01:37:33;;;;;;;1.02;0.60;;;10.80;99.10;;;;;;5054662;28;20025;-89
2021/01/19 01:39:59;;;;;;;0.50;0.50;;;10.80;99.10;;;;;;5055133;28;20029;-88
2021/01/19 01:42:25;;;;;;;1.80;0.60;;;10.80;99.10;;;;;;5072110;28;20021;-87
2021/01/19 01:44:52;;;;;;;2.88;0.70;;;10.80;99.10;;;;;;5071917;28;20177;-88
2021/01/19 01:47:27;;;;;;;1.98;0.70;;;10.80;99.10;;;;;;5054340;28;20052;-88
2021/01/19 01:49:53;;;;;;;1.85;0.70;;;10.80;99.30;;;;;;5073106;28;20108;-88
2021/01/19 01:52:22;;;;;;;1.92;0.80;;;10.80;99.30;;;;;;5054514;28;20822;-88
2021/01/19 01:54:52;;;;;;;1.10;1.00;;;10.70;99.60;;;;;;5055148;28;21656;-88
2021/01/19 01:57:18;;;;;;;1.70;0.70;;;10.70;99.50;;;;;;5072681;28;20107;-89
2021/01/19 01:59:48;;;;;;;;;;;10.80;99.40;;;;;;5066892;28;20425;-89
2021/01/19 02:02:13;;;;;;;0.65;0.60;;;10.90;99.10;;;;;;5047612;28;20389;-88
2021/01/19 02:04:39;;;;;;;2.75;0.80;;;10.90;99.10;;;;;;5072191;28;20477;-88
2021/01/19 02:07:15;;;;;;;1.60;0.77;;;10.90;99.20;;;;;;5054895;28;20024;-86
2021/01/19 02:09:46;;;;;;;4.38;1.08;;;10.80;99.50;;;;;;5043400;28;20035;-84
2021/01/19 02:12:18;;;;;;;3.95;0.80;;;10.70;99.70;;;;;;5059416;28;20069;-84
2021/01/19 02:15:01;;;;;;;2.03;0.73;;;10.70;99.90;;;;;;5053450;28;20115;-86
2021/01/19 02:17:33;;;;;;;1.67;0.70;;;10.70;99.90;;;;;;5073220;28;20063;-85
2021/01/19 02:20:20;;;;;;;3.67;1.30;;;10.70;99.90;;;;;;5054691;28;20034;-85
2021/01/19 02:23:10;;;;;;;2.10;1.20;;;10.70;99.90;;;;;;5059050;28;20017;-86
2021/01/19 02:25:55;;;;;;;1.48;1.00;;;10.70;99.90;;;;;;5072463;28;20032;-86
2021/01/19 02:28:37;;;;;;;1.58;0.70;;;10.70;99.90;;;;;;5055961;28;20072;-85
2021/01/19 02:31:06;;;;;;;2.92;0.95;;;10.70;99.90;;;;;;5063388;28;20075;-87
2021/01/19 02:34:11;;;;;;;2.05;0.70;;;10.70;99.90;;;;;;5062743;28;20021;-87
2021/01/19 02:37:02;;;;;;;0.75;0.75;;;10.70;99.90;;;;;;5051526;28;20013;-87
2021/01/19 02:39:51;;;;;;;1.23;0.60;;;10.70;99.90;;;;;;5034954;28;20033;-86
2021/01/19 02:42:24;;;;;;;0.93;0.60;;;10.70;99.90;;;;;;5052243;28;20054;-86
2021/01/19 02:44:51;;;;;;;1.33;0.50;;;10.70;99.90;;;;;;5050714;28;20029;-86
2021/01/19 02:47:18;;;;;;;1.73;0.65;;;10.70;99.90;;;;;;5037181;28;20504;-87
2021/01/19 02:49:44;;;;;;;0.73;0.52;;;10.70;99.90;;;;;;5053195;28;20029;-86
2021/01/19 02:52:13;;;;;;;7.68;1.50;;;10.80;99.90;;;;;;5071320;28;20023;-87
2021/01/19 02:54:41;;;;;;;1.42;0.68;;;10.80;99.70;;;;;;5043657;28;20025;-87
2021/01/19 02:57:38;;;;;;;5.40;0.93;;;10.80;99.70;;;;;;5044683;28;20482;-88
2021/01/19 03:00:09;;;;;;;1.27;0.70;;;10.80;99.40;;;;;;5056050;28;20048;-87
2021/01/19 03:02:37;;;;;;;4.53;0.90;;;10.80;99.60;;;;;;5038290;28;20017;-87
2021/01/19 03:05:07;;;;;;;9.30;0.82;;;10.80;99.50;;;;;;5064813;28;20025;-87
2021/01/19 03:07:38;;;;;;;6.63;1.30;;;10.80;99.40;;;;;;5075754;28;20047;-87
2021/01/19 03:10:05;;;;;;;4.40;0.90;;;10.80;99.30;;;;;;5050127;28;20052;-88
2021/01/19 03:12:33;;;;;;;5.30;1.30;;;10.80;99.30;;;;;;5055171;28;20021;-89
2021/01/19 03:15:00;;;;;;;6.00;1.40;;;10.80;99.30;;;;;;5060972;28;20017;-89
2021/01/19 03:17:25;;;;;;;8.88;1.10;;;10.80;99.40;;;;;;5066908;28;20012;-88
2021/01/19 03:19:51;;;;;;;6.07;1.23;;;10.80;99.10;;;;;;5076433;28;20103;-88
2021/01/19 03:22:17;;;;;;;;;;;10.70;99.30;;;;;;5054424;28;20021;-88
2021/01/19 03:24:42;;;;;;;9.10;1.20;;;10.70;99.50;;;;;;5041230;28;20366;-89
2021/01/19 03:27:09;;;;;;;10.68;2.30;;;10.70;99.20;;;;;;5054956;28;20017;-89
2021/01/19 03:29:35;;;;;;;18.95;1.95;;;10.70;99.30;;;;;;5047639;28;20457;-88
2021/01/19 03:32:01;;;;;;;9.30;1.10;;;10.70;99.10;;;;;;5056540;28;20135;-89
2021/01/19 03:34:27;;;;;;;;;;;10.70;99.20;;;;;;5075765;28;20028;-88
2021/01/19 03:36:53;;;;;;;8.65;1.55;;;10.60;99.20;;;;;;5075868;28;19908;-89
2021/01/19 03:39:19;;;;;;;;;;;10.60;99.20;;;;;;5058350;28;20097;-89
2021/01/19 03:41:44;;;;;;;8.18;1.02;;;10.60;99.00;;;;;;5066441;28;19904;-89
2021/01/19 03:44:10;;;;;;;3.47;1.08;;;10.70;99.00;;;;;;5069416;28;20031;-88
2021/01/19 03:46:36;;;;;;;9.23;1.08;;;10.70;99.00;;;;;;5047983;28;20033;-89
2021/01/19 03:49:03;;;;;;;2.88;1.30;;;10.70;99.00;;;;;;5054143;28;20021;-89
2021/01/19 03:51:29;;;;;;;6.22;1.10;;;10.60;99.00;;;;;;5054833;28;20036;-90
2021/01/19 03:53:55;;;;;;;6.38;1.10;;;10.60;98.80;;;;;;5064253;28;20021;-87
2021/01/19 03:56:21;;;;;;;5.95;1.58;;;10.70;98.80;;;;;;5062267;28;20037;-88
2021/01/19 03:58:48;;;;;;;6.60;0.80;;;10.70;98.80;;;;;;5055536;28;20052;-88
2021/01/19 04:01:14;;;;;;;7.57;0.98;;;10.60;98.70;;;;;;5077546;28;20051;-88
2021/01/19 04:03:39;;;;;;;;;;;10.60;98.90;;;;;;5059713;28;20025;-88
2021/01/19 04:06:06;;;;;;;4.40;0.80;;;10.60;98.90;;;;;;5059529;28;19920;-88
2021/01/19 04:08:33;;;;;;;12.02;1.20;;;10.60;99.00;;;;;;5077600;28;20084;-87
2021/01/19 04:11:00;;;;;;;6.53;0.75;;;10.60;99.20;;;;;;5084085;28;20032;-87
2021/01/19 04:13:25;;;;;;;6.80;1.02;;;10.60;99.10;;;;;;5074681;28;20009;-87
2021/01/19 04:15:52;;;;;;;11.93;1.58;;;10.60;98.90;;;;;;5088091;28;20013;-88
2021/01/19 04:18:19;;;;;;;2.67;1.15;;;10.60;98.90;;;;;;5058773;28;20067;-87
2021/01/19 04:20:44;;;;;;;12.00;1.30;;;10.60;98.80;;;;;;5080779;28;20074;-88
2021/01/19 04:23:13;;;;;;;2.97;1.13;;;10.60;98.80;;;;;;5078104;28;20032;-86
2021/01/19 04:25:43;;;;;;;2.60;0.90;;;10.60;98.80;;;;;;5063328;28;20017;-89
2021/01/19 04:28:10;;;;;;;6.28;1.20;;;10.60;99.00;;;;;;5047697;28;20070;-88
2021/01/19 04:30:35;;;;;;;3.38;1.15;;;10.60;99.00;;;;;;5059090;28;20112;-88
2021/01/19 04:33:01;;;;;;;4.22;0.70;;;10.60;99.00;;;;;;5044094;28;20040;-88
2021/01/19 04:35:27;;;;;;;7.22;0.80;;;10.60;99.00;;;;;;5047193;28;20478;-88
2021/01/19 04:37:52;;;;;;;6.43;0.85;;;10.60;99.00;;;;;;5040911;28;20093;-89
2021/01/19 04:40:19;;;;;;;2.67;0.85;;;10.60;99.00;;;;;;5054587;28;20025;-88
2021/01/19 04:42:44;;;;;;;;;;;10.70;98.90;;;;;;5048060;28;20021;-89
2021/01/19 04:45:11;;;;;;;6.53;1.02;;;10.70;98.80;;;;;;5055881;28;19905;-89
2021/01/19 04:47:38;;;;;;;6.95;1.02;;;10.70;98.90;;;;;;5042734;28;20029;-88
2021/01/19 04:50:13;;;;;;;5.90;1.58;;;10.60;99.10;;;;;;5074322;28;20470;-88
2021/01/19 04:52:41;;;;;;;4.25;1.80;;;10.60;99.00;;;;;;5051971;28;20124;-88
2021/01/19 04:55:12;;;;;;;3.85;1.40;;;10.60;99.10;;;;;;5044351;28;20025;-88
2021/01/19 04:57:40;;;;;;;3.20;0.80;;;10.60;98.90;;;;;;5061187;28;20051;-88
2021/01/19 05:00:15;;;;;;;2.92;0.70;;;10.70;98.60;;;;;;5064823;28;20551;-88
2021/01/19 05:02:50;;;;;;;3.25;0.95;;;10.70;98.70;;;;;;5056974;28;20028;-88
2021/01/19 05:05:29;;;;;;;6.57;1.25;;;10.60;98.70;;;;;;5056447;28;20374;-89
2021/01/19 05:08:19;;;;;;;4.85;0.77;;;10.70;98.40;;;;;;5074286;28;20025;-88
2021/01/19 05:11:07;;;;;;;5.70;0.80;;;10.60;98.40;;;;;;5063029;28;20081;-87
2021/01/19 05:13:53;;;;;;;4.22;0.68;;;10.60;98.60;;;;;;5042086;28;20154;-89
2021/01/19 05:16:24;;;;;;;3.55;0.70;;;10.60;98.40;;;;;;5072264;28;20128;-88
2021/01/19 05:18:50;;;;;;;2.08;0.70;;;10.60;98.50;;;;;;5041567;28;20115;-89
2021/01/19 05:21:16;;;;;;;;;;;10.60;98.50;;;;;;5063630;28;20021;-89
2021/01/19 05:23:43;;;;;;;3.25;0.60;;;10.60;98.50;;;;;;5070984;28;20356;-89
2021/01/19 05:26:09;;;;;;;;;;;10.60;98.60;;;;;;5047881;28;20018;-88
2021/01/19 05:28:41;;;;;;;7.93;1.20;;;10.60;98.50;;;;;;5055955;28;19905;-89
2021/01/19 05:31:13;;;;;;;5.72;0.70;;;10.60;98.20;;;;;;5067219;28;20131;-89
2021/01/19 05:33:39;;;;;;;1.05;0.60;;;10.60;98.30;;;;;;5055993;28;20017;-88
2021/01/19 05:36:10;;;;;;;4.95;0.70;;;10.60;98.10;;;;;;5053703;28;20044;-89
2021/01/19 05:38:53;;;;;;;7.25;0.88;;;10.60;98.10;;;;;;5047785;28;20032;-89
2021/01/19 05:41:38;;;;;;;6.10;0.90;;;10.60;98.10;;;;;;5055156;28;20032;-89
2021/01/19 05:44:18;;;;;;;3.33;1.35;;;10.60;98.20;;;;;;5057510;28;20017;-89
2021/01/19 05:47:05;;;;;;;4.28;0.98;;;10.60;98.30;;;;;;5062186;28;20032;-87
2021/01/19 05:49:36;;;;;;;2.67;0.70;;;10.50;98.20;;;;;;5040052;28;20182;-88
2021/01/19 05:52:15;;;;;;;7.28;0.70;;;10.60;97.90;;;;;;5055747;28;20064;-87
2021/01/19 05:54:49;;;;;;;5.15;1.20;;;10.60;97.90;;;;;;5064466;28;20050;-86
2021/01/19 05:57:20;;;;;;;3.92;1.10;;;10.60;97.90;;;;;;5049240;28;20028;-88
2021/01/19 05:59:51;;;;;;;11.15;1.13;;;10.60;97.90;;;;;;5051661;28;20502;-88
2021/01/19 06:02:19;;;;;;;6.03;1.02;;;10.60;97.90;;;;;;5047156;28;20028;-87
2021/01/19 06:04:49;;;;;;;8.80;1.08;;;10.60;98.10;;;;;;5036676;28;20382;-88
2021/01/19 06:07:24;;;;;;;5.43;1.02;;;10.60;98.10;;;;;;5055322;28;20027;-88
2021/01/19 06:09:51;;;;;;;3.30;0.93;;;10.60;98.10;;;;;;5074629;28;20024;-87
2021/01/19 06:12:18;;;;;;;3.75;0.93;;;10.60;98.10;;;;;;5056790;28;20012;-88
2021/01/19 06:14:53;;;;;;;3.67;1.35;;;10.60;98.30;;;;;;5052690;28;20024;-87
2021/01/19 06:17:21;;;;;;;2.97;0.77;;;10.50;98.40;;;;;;5051212;28;20080;-87
2021/01/19 06:19:48;;;;;;;2.88;0.90;;;10.50;98.50;;;;;;5063832;28;20017;-88
2021/01/19 06:22:15;;;;;;;6.53;1.75;;;10.50;98.20;;;;;;5052180;28;20031;-87
2021/01/19 06:24:48;;;;;;;10.25;1.45;;;10.50;98.20;;;;;;5052555;28;20033;-87
2021/01/19 06:27:20;;;;;;;7.78;1.40;;;10.50;98.30;;;;;;5066896;28;20025;-87
2021/01/19 06:29:46;;;;;;;6.28;1.60;;;10.40;98.30;;;;;;5053998;28;20024;-88
2021/01/19 06:32:15;;;;;;;8.90;1.55;;;10.50;98.40;;;;;;5054914;28;20013;-88
2021/01/19 06:34:40;;;;;;;7.35;1.58;;;10.50;98.20;;;;;;5068613;28;20032;-85
2021/01/19 06:37:08;;;;;;;19.42;2.42;;;10.50;98.40;;;;;;5063903;28;20017;-88
2021/01/19 06:39:37;;;;;;;9.57;1.50;;;10.50;98.50;;;;;;5060258;28;20037;-88
2021/01/19 06:42:06;;;;;;;12.35;1.77;;;10.50;98.60;;;;;;5054357;28;20404;-88
2021/01/19 06:44:55;;;;;;;10.90;1.70;;;10.50;99.00;;;;;;5053994;28;20028;-88
2021/01/19 06:47:21;;;;;;;8.32;1.65;;;10.40;99.20;;;;;;5068721;28;20029;-89
2021/01/19 06:49:46;;;;;;;10.60;1.45;;;10.40;99.40;;;;;;5056306;28;20120;-90
2021/01/19 06:52:16;;;;;;;16.05;2.28;;;10.40;99.30;;;;;;5053686;28;21299;-89
2021/01/19 06:54:58;;;;;;;16.13;2.35;;;10.40;99.20;;;;;;5050688;28;20025;-90
2021/01/19 06:57:40;;;;;;;10.70;1.55;;;10.40;99.20;;;;;;5054664;28;20444;-90
2021/01/19 07:00:10;;;;;;;23.98;1.75;;;10.40;99.20;;;;;;5057755;28;20428;-89
2021/01/19 07:02:40;;;;;;;8.48;1.40;;;10.40;99.30;;;;;;5067403;28;20020;-88
2021/01/19 07:05:22;;;;;;;14.52;2.65;;;10.40;99.40;;;;;;5053437;28;20047;-89
2021/01/19 07:07:50;;;;;;;7.85;1.55;;;10.40;99.50;;;;;;5052687;28;20521;-89
2021/01/19 07:10:20;;;;;;;16.33;1.63;;;10.40;99.80;;;;;;5060085;28;20465;-90
2021/01/19 07:13:00;;;;;;;8.77;1.63;;;10.40;99.90;;;;;;5062655;28;20029;-90
2021/01/19 07:15:54;;;;;;;15.27;1.92;;;10.40;99.90;;;;;;5053815;28;20016;-89
2021/01/19 07:18:41;;;;;;;6.60;1.38;;;10.30;99.90;;;;;;5071394;28;20512;-90
2021/01/19 07:21:12;;;;;;;14.07;2.35;;;10.40;99.90;;;;;;5073970;28;20086;-89
2021/01/19 07:23:46;;;;;;;13.93;2.13;;;10.30;99.90;;;;;;5062153;28;20028;-90
2021/01/19 07:26:34;;;;;;;16.05;4.03;;;10.30;99.70;;;;;;5057213;28;20120;-90
2021/01/19 07:29:00;;;;;;;8.90;2.15;;;10.30;99.80;;;;;;5063504;28;20028;-90
2021/01/19 07:31:26;;;;;;;13.93;1.90;;;10.30;99.70;;;;;;5049925;28;20024;-90
2021/01/19 07:33:55;;;;;;;11.77;1.50;;;10.30;99.80;;;;;;5056443;28;20064;-90
2021/01/19 07:36:23;;;;;;;10.50;1.38;;;10.30;99.90;;;;;;5056009;28;20025;-88
2021/01/19 07:38:50;;;;;;;10.23;2.20;;;10.30;99.90;;;;;;5068146;28;20032;-89
2021/01/19 07:41:26;;;;;;;8.65;1.38;;;10.30;99.90;;;;;;5066804;28;20112;-88
2021/01/19 07:43:52;;;;;;;4.18;1.00;;;10.20;99.90;;;;;;5063760;28;20031;-88
2021/01/19 07:46:27;;;;;;;4.80;1.10;;;10.20;99.90;;;;;;5078781;28;20025;-88
2021/01/19 07:49:09;;;;;;;4.60;0.98;;;10.30;99.90;;;;;;5068846;28;20020;-88
2021/01/19 07:51:42;;;;;;;8.88;1.05;;;10.20;99.90;;;;;;5063353;28;20021;-89
2021/01/19 07:54:12;;;;;;;4.90;1.42;;;10.20;99.90;;;;;;5040500;28;20064;-90
2021/01/19 08:01:32;;;;;;;7.25;1.50;;;10.30;99.90;;;;;;5047293;28;20031;-89
2021/01/19 08:04:14;;;;;;;5.95;1.48;;;10.20;99.90;;;;;;5095743;28;20028;-88
2021/01/19 08:06:43;;;;;;;11.35;2.75;;;10.20;99.90;;;;;;5048105;28;20032;-89
2021/01/19 08:09:12;;;;;;;6.57;1.80;;;10.20;99.90;;;;;;5029908;28;20033;-90
2021/01/19 08:11:40;;;;;;;9.57;1.40;;;10.20;99.90;;;;;;5055841;28;20050;-89
2021/01/19 08:14:06;;;;;;;4.57;1.50;;;10.20;99.90;;;;;;5058823;28;20054;-88
2021/01/19 08:16:33;;;;;;;6.40;1.10;;;10.20;99.90;;;;;;5058783;28;20092;-90
2021/01/19 08:19:10;;;;;;;4.38;1.23;;;10.20;99.90;;;;;;5058252;28;20041;-90
2021/01/19 08:21:54;;;;;;;9.32;1.00;;;10.20;99.90;;;;;;5058329;28;20385;-88
2021/01/19 08:24:22;;;;;;;15.23;4.20;;;10.20;99.90;;;;;;5059296;28;20067;-86
2021/01/19 08:26:48;;;;;;;6.68;1.77;;;10.20;99.90;;;;;;5057617;28;20482;-86
2021/01/19 08:29:18;;;;;;;16.08;2.92;;;10.20;99.80;;;;;;5071659;28;20021;-89
2021/01/19 08:31:51;;;;;;;12.63;1.95;;;10.20;99.60;;;;;;5047987;28;20029;-88
2021/01/19 08:34:18;;;;;;;11.10;2.30;;;10.20;99.50;;;;;;5063905;28;20017;-89
2021/01/19 08:36:45;;;;;;;20.13;2.45;;;10.30;99.30;;;;;;5051846;28;20040;-89
2021/01/19 08:39:13;;;;;;;14.82;1.80;;;10.30;99.10;;;;;;5071254;28;20537;-88
2021/01/19 08:41:50;;;;;;;21.65;2.20;;;10.30;99.20;;;;;;5038867;28;20025;-89
2021/01/19 08:44:16;;;;;;;16.65;2.05;;;10.30;99.10;;;;;;5076207;28;20531;-89
2021/01/19 08:46:43;;;;;;;9.07;1.90;;;10.30;99.20;;;;;;5070897;28;20062;-90
2021/01/19 08:49:13;;;;;;;8.98;1.52;;;10.30;99.40;;;;;;5088587;28;20050;-89
2021/01/19 08:51:48;;;;;;;16.30;1.90;;;10.20;99.50;;;;;;5057617;28;20031;-89
2021/01/19 08:54:14;;;;;;;7.53;1.45;;;10.20;99.50;;;;;;5078327;28;20021;-89
2021/01/19 08:56:45;;;;;;;17.85;1.88;;;10.20;99.20;;;;;;5055879;28;20024;-90
2021/01/19 08:59:14;;;;;;;6.07;1.60;;;10.20;99.10;;;;;;5074127;28;20029;-89
2021/01/19 09:01:50;;;;;;;13.48;1.88;;;10.20;99.40;;;;;;5059833;28;20112;-89
2021/01/19 09:04:23;;;;;;;7.22;2.08;;;10.20;99.10;;;;;;5060329;28;20016;-89
2021/01/19 09:06:50;;;;;;;6.60;1.27;;;10.20;99.10;;;;;;5064739;28;20031;-90
2021/01/19 09:09:21;;;;;;;14.32;1.70;;;10.20;99.30;;;;;;5047574;28;20029;-87
2021/01/19 09:11:48;;;;;;;11.13;1.42;;;10.10;99.20;;;;;;5071486;28;20024;-91
2021/01/19 09:14:14;;;;;;;8.98;1.58;;;10.20;99.10;;;;;;5072814;28;20020;-86
2021/01/19 09:16:40;;;;;;;14.05;1.92;;;10.20;99.40;;;;;;5073451;28;20492;-86
2021/01/19 09:19:07;;;;;;;;;;;10.10;99.50;;;;;;5057573;28;20055;-91
2021/01/19 09:21:35;;;;;;;;;;;10.20;99.50;;;;;;5053640;28;20358;-88
2021/01/19 09:24:01;;;;;;;10.60;1.67;;;10.20;99.50;;;;;;5052151;28;20324;-87
2021/01/19 09:26:27;;;;;;;13.52;2.25;;;10.20;99.50;;;;;;5052596;28;20040;-85
2021/01/19 09:28:53;;;;;;;15.38;1.45;;;10.20;99.30;;;;;;5056048;28;20047;-84
2021/01/19 09:31:22;;;;;;;;;;;10.30;99.40;;;;;;5075091;28;20023;-89
2021/01/19 09:33:53;;;;;;;7.43;1.80;;;10.30;99.10;;;;;;5051985;28;20319;-89
2021/01/19 09:36:20;;;;;;;10.68;1.55;;;10.30;99.30;;;;;;5048146;28;20025;-90
2021/01/19 09:38:49;;;;;;;13.30;2.42;;;10.30;99.30;;;;;;5051199;23;20053;-90
2021/01/19 09:41:26;;;;;;;13.43;2.25;;;10.20;99.20;;;;;;5013511;28;20361;-88
2021/01/19 09:43:54;;;;;;;16.55;2.33;;;10.20;99.50;;;;;;5028112;28;20050;-87
2021/01/19 09:46:23;;;;;;;16.98;1.95;;;10.20;99.50;;;;;;5036693;28;20470;-89
2021/01/19 09:48:51;;;;;;;12.60;1.75;;;10.20;99.60;;;;;;5015169;28;20026;-90
2021/01/19 09:51:25;;;;;;;8.57;1.75;;;10.20;99.70;;;;;;5027139;28;20028;-88
2021/01/19 09:53:58;;;;;;;8.75;2.03;;;10.20;99.70;;;;;;5025265;28;20164;-87
2021/01/19 09:56:25;;;;;;;10.80;1.83;;;10.20;99.90;;;;;;5017537;28;20018;-87
2021/01/19 09:59:09;;;;;;;12.18;1.58;;;10.20;99.50;;;;;;5011426;28;20038;-88
2021/01/19 10:01:35;;;;;;;15.57;1.73;;;10.10;99.70;;;;;;5014875;28;20108;-89
2021/01/19 10:04:01;;;;;;;14.55;2.42;;;10.10;99.80;;;;;;5027507;28;20062;-90
2021/01/19 10:06:27;;;;;;;14.73;2.83;;;10.00;99.90;;;;;;5013961;28;20029;-89
2021/01/19 10:08:56;;;;;;;12.20;2.47;;;10.00;99.90;;;;;;5021025;28;20264;-89
2021/01/19 10:11:33;;;;;;;19.92;2.25;;;10.00;99.90;;;;;;5015943;28;20073;-89
2021/01/19 10:14:18;;;;;;;16.17;2.90;;;10.10;99.90;;;;;;5018794;28;20449;-88
2021/01/19 10:16:49;;;;;;;15.10;2.33;;;10.10;99.90;;;;;;5021871;28;20022;-88
2021/01/19 10:19:23;;;;;;;20.73;2.78;;;10.00;99.40;;;;;;5020259;28;20037;-90
2021/01/19 10:21:52;;;;;;;15.10;1.90;;;10.00;99.10;;;;;;5009993;28;20010;-86
2021/01/19 10:24:19;;;;;;;16.27;2.00;;;10.00;99.20;;;;;;5018909;28;20030;-88
2021/01/19 10:27:04;;;;;;;11.68;3.13;;;10.00;99.30;;;;;;5015739;28;20622;-89
2021/01/19 10:29:38;;;;;;;14.02;2.58;;;9.90;99.40;;;;;;5021229;28;20152;-89
2021/01/19 10:32:16;;;;;;;23.27;2.50;;;9.90;99.40;;;;;;5014048;28;20022;-89
2021/01/19 10:34:51;;;;;;;18.83;2.22;;;9.90;99.30;;;;;;5008431;28;20036;-87
2021/01/19 10:37:18;;;;;;;9.48;2.05;;;9.90;99.60;;;;;;5002234;28;20045;-89
2021/01/19 10:39:52;;;;;;;9.30;1.70;;;9.90;99.40;;;;;;5014783;28;20036;-88
2021/01/19 10:42:26;;;;;;;6.88;2.35;;;9.90;99.00;;;;;;4996949;28;20093;-89
2021/01/19 10:45:03;;;;;;;12.30;1.17;;;10.00;99.10;;;;;;5007468;28;20029;-89
2021/01/19 10:47:43;;;;;;;4.78;0.98;;;10.10;98.40;;;;;;5002331;28;20022;-90
2021/01/19 10:50:12;;;;;;;6.03;1.23;;;10.10;98.50;;;;;;5020722;28;20033;-90
2021/01/19 10:52:40;;;;;;;2.40;0.70;;;10.00;97.90;;;;;;5019385;28;20120;-91
2021/01/19 10:55:07;;;;;;;5.63;1.17;;;10.00;98.20;;;;;;5020108;28;20022;-91
2021/01/19 10:57:33;;;;;;;4.55;0.85;;;10.00;98.10;;;;;;5031511;28;20014;-92
2021/01/19 10:59:59;;;;;;;5.75;1.05;;;10.10;98.40;;;;;;5035162;28;20026;-93
2021/01/19 11:02:24;;;;;;;1.85;0.60;;;10.10;98.10;;;;;;5029254;28;20029;-90
2021/01/19 11:04:50;;;;;;;1.35;0.68;;;10.10;97.90;;;;;;5018326;28;20030;-90
2021/01/19 11:07:16;;;;;;;2.45;0.70;;;10.20;97.10;;;;;;5025552;28;20018;-91
2021/01/19 11:09:41;;;;;;;3.10;1.05;;;10.20;97.40;;;;;;5012756;28;20006;-93
2021/01/19 11:12:07;;;;;;;3.75;0.80;;;10.20;97.00;;;;;;5025622;28;20034;-93
2021/01/19 11:14:33;;;;;;;0.90;0.80;;;10.20;96.40;;;;;;5025711;28;20049;-90
2021/01/19 13:19:57;;;;;;;11.00;2.83;;;10.60;94.40;;;;;;5208062;23;20053;-90
2021/01/19 13:22:23;;;;;;;6.80;2.50;;;10.60;94.80;;;;;;4990055;28;20026;-90
2021/01/19 13:24:48;;;;;;;10.50;1.65;;;10.60;94.80;;;;;;4993277;28;20106;-91
2021/01/19 13:27:14;;;;;;;3.67;1.05;;;10.60;94.90;;;;;;4996789;28;20062;-92
2021/01/19 13:29:40;;;;;;;8.77;1.50;;;10.60;94.30;;;;;;4978739;28;20033;-91
2021/01/19 13:32:06;;;;;;;6.55;1.98;;;10.70;94.70;;;;;;4977617;28;20019;-91
2021/01/19 13:34:31;;;;;;;7.05;1.83;;;10.80;94.20;;;;;;4976008;28;20099;-93
2021/01/19 13:36:57;;;;;;;7.20;1.60;;;10.90;93.60;;;;;;4975618;28;20030;-91
2021/01/19 13:39:24;;;;;;;7.40;1.60;;;10.90;94.10;;;;;;4974916;28;20039;-89
2021/01/19 13:41:57;;;;;;;8.98;1.23;;;10.90;93.60;;;;;;4975201;28;20057;-91
2021/01/19 13:44:25;;;;;;;9.27;1.95;;;11.00;93.10;;;;;;4974975;28;20027;-87
2021/01/19 13:46:51;;;;;;;6.47;1.83;;;11.00;93.30;;;;;;4970523;28;20023;-87
2021/01/19 13:49:17;;;;;;;;;;;11.00;92.90;;;;;;4968219;28;20027;-81
2021/01/19 13:51:44;;;;;;;7.85;1.52;;;11.00;93.20;;;;;;4975268;28;19906;-84
2021/01/19 13:54:10;;;;;;;4.70;1.40;;;10.90;93.60;;;;;;4968313;28;20023;-83
2021/01/19 13:56:36;;;;;;;7.57;1.30;;;10.90;93.60;;;;;;4982693;28;20015;-87
2021/01/19 13:59:01;;;;;;;8.98;1.90;;;10.90;93.70;;;;;;4977648;28;20539;-86
2021/01/19 14:01:31;;;;;;;8.43;1.60;;;10.90;93.80;;;;;;4986223;28;20027;-84
2021/01/19 14:03:57;;;;;;;6.18;1.70;;;10.80;93.90;;;;;;4987604;28;20046;-86
2021/01/19 14:06:23;;;;;;;7.10;1.50;;;10.80;94.30;;;;;;4985148;28;20038;-87
2021/01/19 14:08:51;;;;;;;5.28;1.60;;;10.70;94.40;;;;;;4983947;28;20546;-86
2021/01/19 14:11:17;;;;;;;7.93;1.58;;;10.70;94.70;;;;;;4981988;28;20011;-86
2021/01/19 14:13:43;;;;;;;6.70;1.45;;;10.70;95.10;;;;;;4980210;28;20091;-86
2021/01/19 14:16:09;;;;;;;6.88;1.63;;;10.60;95.30;;;;;;4974077;28;20369;-86
2021/01/19 14:18:34;;;;;;;7.68;2.13;;;10.60;95.50;;;;;;4977364;28;20073;-86
2021/01/19 14:21:00;;;;;;;7.82;1.65;;;10.50;96.00;;;;;;4978655;28;20484;-87
2021/01/19 14:23:26;;;;;;;9.95;1.65;;;10.50;95.60;;;;;;4979386;28;20037;-86
2021/01/19 14:25:52;;;;;;;4.57;1.70;;;10.50;96.10;;;;;;4980277;28;20030;-85
2021/01/19 14:28:17;;;;;;;8.43;2.00;;;10.50;96.30;;;;;;4981437;28;20047;-86
2021/01/19 14:30:50;;;;;;;7.45;1.92;;;10.50;96.10;;;;;;4973644;28;20027;-85
2021/01/19 14:38:25;;;;;;;7.85;2.10;;;10.50;96.20;;;;;;5591456;23;20497;-85
2021/01/19 14:40:51;;;;;;;6.97;1.60;;;10.50;96.40;;;;;;4957962;29;20039;-86
2021/01/19 14:43:16;;;;;;;;;;;10.40;96.40;;;;;;4953114;28;20442;-86
2021/01/19 14:45:42;;;;;;;9.20;2.10;;;10.40;96.30;;;;;;4948316;29;19911;-86
2021/01/19 14:48:08;;;;;;;5.53;1.70;;;10.50;95.40;;;;;;4951219;29;20059;-88
2021/01/19 14:50:34;;;;;;;8.82;2.05;;;10.60;95.40;;;;;;4952950;28;20062;-87
2021/01/19 14:53:00;;;;;;;8.75;2.17;;;10.70;95.20;;;;;;4955539;29;20027;-86
2021/01/19 14:55:25;;;;;;;;;;;10.60;95.20;;;;;;4950655;29;20514;-85
2021/01/19 14:57:51;;;;;;;8.07;2.10;;;10.70;95.20;;;;;;4959677;29;19934;-86
2021/01/19 15:00:17;;;;;;;5.40;2.10;;;10.70;94.70;;;;;;4958795;29;20432;-86
2021/01/19 15:02:43;;;;;;;10.77;2.42;;;10.70;95.10;;;;;;4961781;28;20027;-86
2021/01/19 15:05:09;;;;;;;11.27;2.30;;;10.70;94.60;;;;;;4962038;28;20081;-86
2021/01/19 15:07:36;;;;;;;7.40;2.22;;;10.70;94.50;;;;;;4964497;28;20024;-86
2021/01/19 15:10:03;;;;;;;11.15;2.58;;;10.70;94.60;;;;;;4957042;28;20067;-86
2021/01/19 15:12:31;;;;;;;11.45;2.72;;;10.70;94.30;;;;;;4957921;28;20043;-85